METAR Data
IDs: Format: Raw Decoded Include TAF

Data at: 0234 UTC 16 Jan 2019

KRAS 160215Z AUTO 05013KT 7SM -RA BR OVC005 14/13 A3026 RMK AO2 P0001 T01360129
KRAS 160155Z AUTO 05013KT 7SM -RA BR OVC005 14/13 A3027 RMK AO2 P0005 T01370129
KRAS 160135Z AUTO 04012KT 7SM -RA BR OVC005 14/13 A3028 RMK AO2 P0003 T01360129
KRAS 160115Z AUTO 03009KT 5SM -RA BR OVC003 13/13 A3028 RMK AO2 P0002 T01290126
KRAS 160055Z AUTO 02011KT 5SM -RA BR OVC003 13/12 A3027 RMK AO2 P0004 T01270123
KRAS 160035Z AUTO 02013KT 7SM DZ OVC003 12/12 A3027 RMK AO2 P0002 T01250121
KRAS 160015Z AUTO 02012KT 4SM -RA BR OVC003 12/12 A3027 RMK AO2 P0001 T01240120
KRAS 152355Z AUTO 02013KT 2 1/2SM -RA BR OVC005 12/12 A3026 RMK AO2 P0008 T01220119 10123 20109 401250099 60013
KRAS 152335Z AUTO 02011KT 2SM -RA BR OVC005 12/12 A3026 RMK AO2 P0004 T01210117
KRAS 152315Z AUTO 02013KT 4SM DZ BR OVC005 12/12 A3026 RMK AO2 T01200115
KRAS 152255Z AUTO 03012KT 10SM -DZ OVC005 12/11 A3026 RMK AO2 T01200114
KRAS 152235Z AUTO 03011KT 7SM BR OVC005 12/11 A3026 RMK AO2 T01190113
KRAS 152215Z AUTO 03012KT 5SM -RA BR OVC005 12/11 A3027 RMK AO2 T01180112
KRAS 152155Z AUTO 02012KT 7SM BR OVC005 12/11 A3027 RMK AO2 T01160110
KRAS 152135Z AUTO 02014KT 7SM OVC005 11/11 A3027 RMK AO2 T01140108
KRAS 152115Z AUTO 02011KT 7SM BR OVC005 11/11 A3028 RMK AO2 T01130107
KRAS 152055Z AUTO 02010KT 5SM -RA BR OVC005 11/11 A3028 RMK AO2 P0002 T01130108 60005
KRAS 152035Z AUTO 02013KT 7SM -RA BR OVC005 11/11 A3028 RMK AO2 P0001 T01110105
KRAS 152015Z AUTO 02012KT 5SM -DZ BR OVC005 11/10 A3028 RMK AO2 P0001 T01100104
KRAS 151955Z AUTO 02013KT 1 3/4SM DZ BR OVC005 11/11 A3029 RMK AO2 P0002 T01110105
KRAS 151935Z AUTO 01013KT 2SM DZ BR BKN005 OVC016 11/10 A3030 RMK AO2 P0002 T01090103
KRAS 151915Z AUTO 01012KT 1 3/4SM +DZ BR SCT005 OVC018 11/10 A3031 RMK AO2 T01110104
KRAS 151855Z AUTO 01012KT 3SM -RA BR BKN020 OVC026 11/10 A3032 RMK AO2 P0001 T01120103
KRAS 151835Z AUTO 01012KT 4SM DZ BR BKN023 BKN031 OVC036 11/10 A3033 RMK AO2 T01120101
KRAS 151815Z AUTO 01010KT 5SM +DZ BR BKN025 OVC034 11/10 A3035 RMK AO2 T01120098
KRAS 151755Z AUTO 01013KT 7SM -RA BR BKN027 OVC039 12/09 A3036 RMK AO2 T01190093 10125 20106
KRAS 151735Z AUTO 36012KT 10SM SCT029 OVC041 12/09 A3037 RMK AO2 T01200089
KRAS 151715Z AUTO 36013KT 10SM OVC041 12/09 A3037 RMK AO2 T01210088
KRAS 151655Z AUTO 01011KT 10SM OVC044 12/09 A3038 RMK AO2 T01230091
KRAS 151635Z AUTO 01014KT 10SM OVC043 12/09 A3038 RMK AO2 T01190089
KRAS 151615Z AUTO 02012KT 10SM OVC043 12/09 A3038 RMK AO2 T01180089
KRAS 151555Z AUTO 02010KT 10SM OVC041 12/09 A3038 RMK AO2 T01190090
KRAS 151535Z AUTO 02009KT 10SM BKN041 OVC060 12/09 A3037 RMK AO2 T01190091
KRAS 151515Z AUTO 02009KT 10SM SCT044 OVC060 11/09 A3036 RMK AO2 T01150091
KRAS 151455Z AUTO 01009KT 10SM OVC044 11/09 A3036 RMK AO2 T01120090
KRAS 151435Z AUTO 01007KT 7SM -DZ BR OVC040 11/09 A3035 RMK AO2 T01100089
KRAS 151415Z AUTO 01007KT 10SM OVC044 11/08 A3035 RMK AO2 T01150083
KRAS 151355Z AUTO 02009KT 10SM BKN040 BKN049 OVC060 11/08 A3034 RMK AO2 T01150083
KRAS 151335Z AUTO 02007KT 10SM SCT035 BKN043 OVC060 11/08 A3034 RMK AO2 T01110081
KRAS 151315Z AUTO 01008KT 10SM BKN036 OVC041 11/08 A3034 RMK AO2 T01100080
KRAS 151255Z AUTO 01008KT 10SM SCT036 OVC046 11/08 A3033 RMK AO2 T01100080
KRAS 151235Z AUTO 01007KT 10SM SCT040 BKN046 OVC055 11/08 A3033 RMK AO2 T01090079
KRAS 151215Z AUTO 36007KT 10SM OVC039 11/08 A3032 RMK AO2 T01080077
KRAS 151155Z AUTO 36007KT 10SM OVC035 11/08 A3031 RMK AO2 T01080077 10108 20105
KRAS 151135Z AUTO 02005KT 10SM OVC033 11/08 A3031 RMK AO2 T01080076
KRAS 151115Z AUTO 02007KT 10SM BKN035 BKN048 OVC065 11/07 A3031 RMK AO2 T01050072
KRAS 151055Z AUTO 03007KT 10SM SCT038 BKN050 OVC065 10/07 A3031 RMK AO2 T01050069
KRAS 151035Z AUTO 02009KT 10SM BKN041 OVC050 11/07 A3032 RMK AO2 T01070070
KRAS 151015Z AUTO 01009KT 10SM BKN039 OVC046 11/07 A3033 RMK AO2 T01070070
KRAS 150955Z AUTO 01010KT 10SM OVC037 11/07 A3034 RMK AO2 T01060069
KRAS 150935Z AUTO 02008KT 10SM BKN037 OVC047 11/07 A3034 RMK AO2 T01060069
KRAS 150915Z AUTO 01008KT 10SM SCT039 OVC049 11/07 A3034 RMK AO2 T01060069
KRAS 150855Z AUTO 01007KT 10SM BKN039 OVC049 11/07 A3034 RMK AO2 T01050069
KRAS 150835Z AUTO 01008KT 10SM OVC037 11/07 A3035 RMK AO2 T01060068
KRAS 150815Z AUTO 02005KT 10SM OVC037 11/07 A3034 RMK AO2 T01080070
KRAS 150755Z AUTO 02005KT 10SM OVC037 11/06 A3035 RMK AO2 T01050065
KRAS 150735Z AUTO 01005KT 10SM BKN037 BKN047 OVC050 11/06 A3035 RMK AO2 T01070065
KRAS 150715Z AUTO 02006KT 10SM SCT037 SCT044 OVC050 10/06 A3035 RMK AO2 T01050060
KRAS 150655Z AUTO 02006KT 10SM OVC037 10/06 A3036 RMK AO2 T01050056
KRAS 150635Z AUTO 02007KT 10SM BKN037 BKN049 OVC065 11/06 A3038 RMK AO2 T01050055
KRAS 150615Z AUTO 02006KT 10SM OVC065 11/06 A3039 RMK AO2 T01060060
KRAS 150555Z AUTO 02006KT 10SM BKN055 OVC065 10/06 A3038 RMK AO2 T01050060 10108 20099
KRAS 150535Z AUTO 01008KT 10SM BKN046 OVC060 10/06 A3039 RMK AO2 T01040058
KRAS 150515Z AUTO 01008KT 10SM OVC046 10/06 A3039 RMK AO2 T01040057
KRAS 150455Z AUTO 02008KT 10SM BKN048 OVC060 10/05 A3040 RMK AO2 T01030053
KRAS 150435Z AUTO 01006KT 10SM OVC060 10/05 A3040 RMK AO2 T01050055
KRAS 150415Z AUTO 02007KT 10SM OVC060 10/06 A3039 RMK AO2 T01040056
KRAS 150355Z AUTO 02007KT 10SM OVC060 10/06 A3039 RMK AO2 T01040060
KRAS 150335Z AUTO 02006KT 10SM OVC060 10/06 A3039 RMK AO2 T01020058
KRAS 150315Z AUTO 02006KT 10SM OVC060 10/06 A3040 RMK AO2 T01020057
KRAS 150255Z AUTO 02008KT 10SM OVC060 10/05 A3040 RMK AO2 T01010053
KRAS 150235Z AUTO 02009KT 10SM OVC060 10/05 A3040 RMK AO2 T01010052
KRAS 150215Z AUTO 03010KT 10SM SCT041 SCT048 OVC060 10/05 A3040 RMK AO2 T01000047
KRAS 150155Z AUTO 03008KT 10SM SCT041 SCT048 OVC060 10/05 A3040 RMK AO2 T01000048
KRAS 150135Z AUTO 03009KT 10SM BKN041 OVC060 10/05 A3040 RMK AO2 T01000049
KRAS 150115Z AUTO 03010KT 10SM OVC041 10/05 A3040 RMK AO2 T00990045
KRAS 150055Z AUTO 03010KT 10SM OVC041 10/05 A3039 RMK AO2 T00990047
KRAS 150035Z AUTO 03008KT 10SM OVC043 10/05 A3039 RMK AO2 T01000050
KRAS 150015Z AUTO 03010KT 10SM OVC043 10/05 A3038 RMK AO2 T00990049
KRAS 142355Z AUTO 04009KT 10SM OVC043 10/05 A3039 RMK AO2 T00990048 10101 20090 401250085
KRAS 142335Z AUTO 04010KT 10SM OVC043 10/05 A3038 RMK AO2
KRAS 142315Z AUTO 03010KT 10SM OVC043 10/05 A3038 RMK AO2 T00990049
KRAS 142255Z AUTO 03010KT 10SM OVC043 10/05 A3039 RMK AO2 T00990047
KRAS 142235Z AUTO 03010KT 10SM OVC043 10/05 A3040 RMK AO2
KRAS 142215Z AUTO 04009KT 10SM OVC043 10/05 A3039 RMK AO2 T00990047
KRAS 142155Z AUTO 03009KT 10SM BKN043 OVC050 10/05 A3039 RMK AO2 T00970046
KRAS 142135Z AUTO 04011KT 10SM SCT046 OVC060 10/05 A3038 RMK AO2 T00980048
KRAS 142115Z AUTO 02012KT 10SM BKN044 OVC050 10/05 A3038 RMK AO2 T00980049
KRAS 142055Z AUTO 01013KT 10SM OVC044 10/05 A3038 RMK AO2 T01000053
KRAS 142035Z AUTO 02013KT 10SM OVC044 10/05 A3039 RMK AO2 T00980051
KRAS 142015Z AUTO 01012KT 10SM BKN046 OVC050 10/06 A3040 RMK AO2 T00990055
KRAS 141955Z AUTO 01012KT 10SM BKN048 OVC050 10/06 A3040 RMK AO2 T00970056
KRAS 141935Z AUTO 01014KT 10SM OVC050 09/06 A3041 RMK AO2 T00940055
KRAS 141915Z AUTO 01012KT 10SM OVC050 10/06 A3042 RMK AO2 T00950056
KRAS 141855Z AUTO 03011KT 10SM OVC048 09/05 A3043 RMK AO2 T00940055
KRAS 141835Z AUTO 01012KT 10SM SCT015 OVC048 09/05 A3044 RMK AO2 T00920054
KRAS 141815Z AUTO 01011KT 10SM SCT015 OVC050 09/05 A3045 RMK AO2 T00920055
KRAS 141755Z AUTO 36014KT 10SM SCT015 OVC050 09/05 A3046 RMK AO2 T00910055 10095 20085
KRAS 141735Z AUTO 01013KT 10SM BKN050 OVC070 09/05 A3046 RMK AO2 T00910054
KRAS 141715Z AUTO 01013KT 10SM SCT015 BKN050 OVC070 09/05 A3047 RMK AO2 T00900055
KRAS 141655Z AUTO 02012KT 10SM BKN015 BKN050 OVC070 09/06 A3048 RMK AO2 T00910055
KRAS 141635Z AUTO 01014KT 10SM BKN015 BKN049 OVC060 09/06 A3049 RMK AO2 T00900056
KRAS 141615Z AUTO 01012KT 10SM BKN015 BKN060 OVC070 09/06 A3049 RMK AO2 T00900056
KRAS 141555Z AUTO 01012KT 10SM SCT015 SCT060 OVC070 09/06 A3048 RMK AO2 T00910057
KRAS 141535Z AUTO 02017KT 10SM SCT015 BKN060 OVC070 09/05 A3047 RMK AO2 T00880055
KRAS 141515Z AUTO 02013KT 10SM BKN015 OVC060 09/06 A3047 RMK AO2 T00880056
KRAS 141455Z AUTO 02011KT 10SM BKN015 OVC050 09/06 A3047 RMK AO2 T00860056
KRAS 141435Z AUTO 01013KT 10SM BKN015 OVC050 09/06 A3047 RMK AO2 T00860056